664  
SHUS65 KGJT 252014  
FWOGJT  
 
DAILY FIRE WEATHER OBSERVATION  
NATIONAL WEATHER SERVICE GRAND JUNCTION CO  
212 PM MDT SUN AUG 25 2019  
 
STATE OF THE WEATHER (W) 0  
DRY BULB TEMPERATURE 93 DEGREES FAHRENHEIT  
RELATIVE HUMIDITY (RH) 15 PERCENT  
LIGHTNING ACTIVITY LEVEL  
(LAL - MIDNIGHT TO 2 PM) 1  
WIND DIRECTION 270 DEGREES (C IF CALM)  
WIND SPEED 5 MPH  
MAX TEMP (2 PM - 2 PM) 96 DEGREES FAHRENHEIT  
MIN TEMP (2 PM - 2 PM) 62 DEGREES FAHRENHEIT  
MAX RH (2 PM - 2 PM) 36 PERCENT  
MIN RH (2 PM - 2 PM) 12 PERCENT  
PCPN DURATION 0.0 HOURS  
PCPN AMT (2 PM - 2 PM) 0.0 INCHES  
LAL (2 PM - 2 PM) 1  
 

 
 
METAR KGJT 251953Z 28004KT 10SM CLR 34/03 A3001 RMK AO2 SLP079  
T03390033  
 
CLICK HERE TO GO TO PREVIOUS BULLETINS.

The Nexlab CO Page
The Nexlab UT Page Main Text Page